Time;durP1;ratioP1;P1;durP2;ratioP2;P2;SDS_P1;SDS_P2;PMS_P1;PMS_P2;Temp;Humidity;BMP_temperature;BMP_pressure;BME280_temperature;BME280_humidity;BME280_pressure;Samples;Min_cycle;Max_cycle;Signal;HPM_P1;HPM_P2
2021/03/05 00:00:34;;;;;;;16.53;9.47;;;3.60;92.60;;;;;;4403863;32;20208;-66
2021/03/05 00:03:06;;;;;;;16.53;9.70;;;3.60;92.90;;;;;;4405154;32;20152;-67
2021/03/05 00:05:34;;;;;;;20.27;9.73;;;3.60;92.70;;;;;;4400535;32;20172;-66
2021/03/05 00:08:01;;;;;;;20.40;10.03;;;3.60;92.90;;;;;;4398889;32;20166;-67
2021/03/05 00:10:32;;;;;;;19.97;9.77;;;3.60;92.60;;;;;;4403279;32;20490;-68
2021/03/05 00:12:58;;;;;;;17.67;10.13;;;3.60;92.70;;;;;;4405261;32;20175;-68
2021/03/05 00:15:27;;;;;;;17.57;9.87;;;3.60;92.70;;;;;;4407193;32;20557;-66
2021/03/05 00:17:53;;;;;;;15.53;9.57;;;3.60;92.60;;;;;;4403507;32;20662;-66
2021/03/05 00:20:23;;;;;;;16.97;10.30;;;3.60;92.50;;;;;;4408838;32;20516;-66
2021/03/05 00:22:50;;;;;;;15.30;9.70;;;3.70;92.30;;;;;;4409689;32;20152;-66
2021/03/05 00:25:16;;;;;;;18.57;9.57;;;3.50;92.00;;;;;;4401589;32;20201;-67
2021/03/05 01:16:45;;;;;;;15.73;9.50;;;2.30;93.60;;;;;;4394238;32;20166;-66
2021/03/05 01:19:40;;;;;;;17.73;9.77;;;2.20;93.60;;;;;;4403712;32;20214;-66
2021/03/05 01:22:13;;;;;;;15.67;9.63;;;2.20;93.80;;;;;;4329511;33;20178;-66
2021/03/05 01:24:42;;;;;;;14.83;9.97;;;2.20;94.00;;;;;;4339193;32;20177;-66
2021/03/05 01:27:09;;;;;;;20.37;9.90;;;2.20;94.00;;;;;;4345141;33;20663;-67
2021/03/05 01:30:07;;;;;;;17.57;10.43;;;2.20;94.20;;;;;;4342838;33;20228;-68
2021/03/05 01:32:58;;;;;;;13.60;8.97;;;2.10;94.20;;;;;;4337717;33;20548;-67
2021/03/05 01:41:23;;;;;;;17.23;10.40;;;2.00;94.30;;;;;;4256435;33;20170;-66
2021/03/05 01:43:52;;;;;;;17.40;10.77;;;2.00;94.60;;;;;;4257119;33;20217;-66
2021/03/05 01:46:26;;;;;;;13.97;9.23;;;2.00;94.60;;;;;;4258143;33;20227;-66
2021/03/05 01:48:59;;;;;;;21.30;10.10;;;1.90;94.50;;;;;;4256774;33;20237;-67
2021/03/05 01:54:42;;;;;;;;;;;;;;;;;;;;;
2021/03/05 01:57:12;;;;;;;19.80;10.57;;;1.90;94.80;;;;;;4213689;33;20148;-69
2021/03/05 01:59:51;;;;;;;18.67;9.37;;;1.80;95.00;;;;;;4236933;33;20552;-71
2021/03/05 02:02:20;;;;;;;20.83;10.77;;;1.90;95.00;;;;;;4269206;33;20158;-70
2021/03/05 02:05:11;;;;;;;17.67;10.03;;;1.80;95.00;;;;;;4309219;33;20232;-66
2021/03/05 02:08:01;;;;;;;14.47;9.57;;;1.80;95.00;;;;;;4312202;33;20330;-66
2021/03/05 02:10:43;;;;;;;21.60;9.47;;;1.80;95.30;;;;;;4306868;33;20186;-68
2021/03/05 02:13:22;;;;;;;17.27;9.80;;;1.80;95.20;;;;;;4297487;33;20204;-66
2021/03/05 02:15:49;;;;;;;24.57;10.50;;;1.70;95.10;;;;;;4297839;33;20616;-69
2021/03/05 02:18:30;;;;;;;21.73;10.10;;;1.70;95.30;;;;;;4322269;33;20259;-70
2021/03/05 02:21:45;;;;;;;16.83;9.60;;;1.70;95.30;;;;;;4343499;33;20596;-69
2021/03/05 02:24:56;;;;;;;22.60;9.17;;;1.70;95.40;;;;;;4341047;33;20153;-67
2021/03/05 02:28:07;;;;;;;16.70;8.27;;;1.70;95.40;;;;;;4271927;33;20151;-69
2021/03/05 02:31:13;;;;;;;19.10;8.87;;;1.70;95.40;;;;;;4275032;33;20235;-67
2021/03/05 02:34:04;;;;;;;15.20;8.53;;;1.60;95.50;;;;;;4323273;33;20255;-67
2021/03/05 02:36:43;;;;;;;18.00;7.70;;;1.60;95.50;;;;;;4317395;33;20225;-66
2021/03/05 02:42:28;;;;;;;15.87;7.93;;;1.50;95.40;;;;;;4311799;33;20233;-67
2021/03/05 02:48:27;;;;;;;17.70;6.87;;;1.50;95.40;;;;;;4255302;33;20188;-67
2021/03/05 02:51:18;;;;;;;17.90;7.57;;;1.50;95.50;;;;;;4241905;33;20163;-68
2021/03/05 02:54:09;;;;;;;16.40;7.00;;;1.40;95.50;;;;;;4244603;33;20561;-65
2021/03/05 02:57:13;;;;;;;17.27;6.73;;;1.40;95.50;;;;;;4240786;33;20227;-66
2021/03/05 02:59:52;;;;;;;13.57;6.60;;;1.40;95.50;;;;;;4254938;33;20197;-66
2021/03/05 03:08:32;;;;;;;21.57;7.23;;;1.40;95.40;;;;;;4215206;34;20196;-69
2021/03/05 03:11:23;;;;;;;14.23;6.40;;;1.30;95.40;;;;;;4209917;34;20345;-68
2021/03/05 03:14:29;;;;;;;15.73;5.67;;;1.30;95.50;;;;;;4256352;33;20167;-67
2021/03/05 03:17:06;;;;;;;13.90;6.13;;;1.20;95.50;;;;;;4230303;33;20167;-68
2021/03/05 03:22:52;;;;;;;13.37;5.83;;;1.20;95.70;;;;;;4273061;33;20174;-67
2021/03/05 03:25:18;;;;;;;16.80;7.20;;;1.20;95.50;;;;;;4285590;33;20222;-69
2021/03/05 03:28:01;;;;;;;;;;;;;;;;;;;;;
2021/03/05 03:30:40;;;;;;;14.93;6.07;;;1.20;95.50;;;;;;4288649;33;20568;-68
2021/03/05 03:33:17;;;;;;;18.07;6.07;;;1.10;95.60;;;;;;4291257;33;20182;-68
2021/03/05 03:36:11;;;;;;;21.80;6.27;;;1.10;95.50;;;;;;4286174;33;20649;-65
2021/03/05 03:41:55;;;;;;;15.63;5.87;;;1.00;95.70;;;;;;4244616;33;20267;-67
2021/03/05 03:44:25;;;;;;;15.90;5.77;;;1.00;95.80;;;;;;4296643;33;20169;-67
2021/03/05 03:50:21;;;;;;;13.90;4.90;;;1.00;95.70;;;;;;4230188;34;20176;-65
2021/03/05 03:52:59;;;;;;;18.53;5.17;;;1.00;95.70;;;;;;4224183;33;20191;-65
2021/03/05 04:01:47;;;;;;;14.40;5.40;;;0.80;95.50;;;;;;4207336;34;20196;-64
2021/03/05 04:12:54;;;;;;;12.87;5.23;;;0.80;95.80;;;;;;3861108;32;18283232;-69
2021/03/05 04:15:20;;;;;;;18.37;5.73;;;0.70;95.80;;;;;;4402485;32;20156;-68
2021/03/05 04:17:57;;;;;;;14.90;5.10;;;0.70;95.80;;;;;;4405312;32;20175;-68
2021/03/05 04:20:41;;;;;;;19.47;5.30;;;0.60;95.80;;;;;;4403725;32;20646;-66
2021/03/05 04:23:30;;;;;;;16.23;5.17;;;0.60;95.90;;;;;;4415719;32;20170;-67
2021/03/05 04:26:01;;;;;;;14.97;4.97;;;0.60;95.90;;;;;;4408921;32;20214;-67
2021/03/05 04:29:05;;;;;;;17.70;5.43;;;0.60;95.90;;;;;;4400825;32;20156;-65
2021/03/05 04:34:27;;;;;;;15.27;4.67;;;0.50;96.30;;;;;;4301021;33;20201;-67
2021/03/05 04:39:59;;;;;;;13.07;5.20;;;0.50;96.20;;;;;;4298488;33;20146;-69
2021/03/05 04:42:25;;;;;;;12.47;4.60;;;0.50;96.00;;;;;;4306094;33;20173;-67
2021/03/05 04:45:05;;;;;;;17.73;5.23;;;0.40;96.00;;;;;;4313435;33;20185;-67
2021/03/05 04:50:26;;;;;;;15.57;5.20;;;0.30;96.00;;;;;;4322087;33;20227;-70
2021/03/05 04:52:52;;;;;;;16.23;4.90;;;0.40;96.20;;;;;;4336769;33;20154;-69
2021/03/05 04:55:22;;;;;;;18.10;7.03;;;0.40;96.20;;;;;;4328947;33;20691;-67
2021/03/05 04:57:48;;;;;;;17.63;5.50;;;0.30;96.20;;;;;;4326619;33;20559;-68
2021/03/05 05:00:38;;;;;;;12.23;4.60;;;0.30;96.20;;;;;;4326721;33;20257;-68
2021/03/05 05:06:25;;;;;;;13.80;5.03;;;0.20;96.20;;;;;;4351448;33;20157;-68
2021/03/05 05:09:10;;;;;;;19.43;5.43;;;0.30;96.30;;;;;;4365331;32;20178;-66
2021/03/05 05:11:55;;;;;;;16.57;5.30;;;0.20;96.10;;;;;;4392002;32;20190;-65
2021/03/05 05:14:49;;;;;;;17.87;4.43;;;0.20;96.10;;;;;;4419744;32;20186;-68
2021/03/05 05:17:16;;;;;;;15.10;4.87;;;0.20;96.40;;;;;;4415975;32;20159;-67
2021/03/05 05:20:10;;;;;;;17.30;5.27;;;0.10;96.20;;;;;;4429326;32;20253;-65
2021/03/05 05:22:37;;;;;;;13.23;5.50;;;0.10;96.20;;;;;;4418659;32;20167;-67
2021/03/05 05:30:47;;;;;;;11.57;4.30;;;0.10;96.40;;;;;;4294578;33;20249;-68
2021/03/05 05:33:25;;;;;;;15.20;4.17;;;0.10;96.30;;;;;;4297131;33;20150;-68
2021/03/05 05:36:07;;;;;;;18.20;5.33;;;0.00;96.40;;;;;;4292412;33;20284;-67
2021/03/05 05:38:49;;;;;;;12.87;4.57;;;0.00;96.40;;;;;;4297967;33;20235;-66
2021/03/05 05:41:15;;;;;;;16.00;4.40;;;0.00;96.40;;;;;;4300374;33;20169;-67
2021/03/05 05:43:44;;;;;;;17.90;5.73;;;-0.10;96.40;;;;;;4307608;33;20164;-65
2021/03/05 05:49:28;;;;;;;19.33;5.40;;;-0.10;96.50;;;;;;4305990;33;20194;-65
2021/03/05 05:52:18;;;;;;;13.43;4.83;;;-0.10;96.60;;;;;;4336109;32;20260;-65
2021/03/05 05:55:00;;;;;;;12.13;5.30;;;-0.20;96.50;;;;;;4328785;33;20233;-67
2021/03/05 05:57:51;;;;;;;19.27;4.80;;;-0.10;96.40;;;;;;4327902;33;20153;-66
2021/03/05 06:00:31;;;;;;;13.23;5.23;;;-0.10;96.50;;;;;;4293111;33;20175;-65
2021/03/05 06:12:00;;;;;;;15.47;5.10;;;-0.20;96.60;;;;;;4277020;33;20197;-67
2021/03/05 06:14:39;;;;;;;21.37;5.73;;;-0.20;96.60;;;;;;4282246;33;20169;-65
2021/03/05 06:17:08;;;;;;;15.67;5.63;;;-0.20;96.50;;;;;;4287928;33;20229;-67
2021/03/05 06:36:34;;;;;;;;;;;;;;;;;;;;;
2021/03/05 06:39:04;;;;;;;17.43;8.13;;;0.10;96.40;;;;;;4424156;32;20150;-67
2021/03/05 06:41:31;;;;;;;20.60;6.83;;;0.10;96.40;;;;;;4424791;32;20170;-67
2021/03/05 06:43:59;;;;;;;16.47;5.30;;;0.10;96.30;;;;;;4426489;32;20690;-67
2021/03/05 06:46:39;;;;;;;15.03;5.03;;;0.10;96.20;;;;;;4427152;32;20190;-68
2021/03/05 06:49:08;;;;;;;14.43;4.60;;;0.10;96.10;;;;;;4426641;32;20173;-68
2021/03/05 06:51:35;;;;;;;17.73;5.00;;;0.20;96.10;;;;;;4424488;32;20155;-65
2021/03/05 06:57:26;;;;;;;12.53;4.10;;;0.20;95.90;;;;;;4416390;32;20211;-67
2021/03/05 07:00:06;;;;;;;;;;;;;;;;;;;;;
2021/03/05 07:02:59;;;;;;;17.37;4.60;;;0.30;95.60;;;;;;4381745;32;20167;-66
2021/03/05 07:09:07;;;;;;;18.30;4.90;;;0.40;95.40;;;;;;4325119;33;20212;-66
2021/03/05 08:20:49;;;;;;;9.23;3.00;;;2.60;90.40;;;;;;4272225;33;20528;-67
2021/03/05 08:23:17;;;;;;;12.60;2.83;;;2.60;90.30;;;;;;4309920;33;20329;-67
2021/03/05 08:26:05;;;;;;;12.60;3.20;;;2.70;89.00;;;;;;4310996;33;20288;-67
2021/03/05 08:28:46;;;;;;;5.30;2.27;;;2.80;89.00;;;;;;4305578;33;20210;-69
2021/03/05 08:31:34;;;;;;;7.20;2.20;;;2.80;88.40;;;;;;4313927;33;20244;-65
2021/03/05 08:34:26;;;;;;;10.97;3.20;;;3.00;87.80;;;;;;4311057;33;20229;-65
2021/03/05 08:36:54;;;;;;;11.07;2.77;;;3.00;87.40;;;;;;4311963;33;20185;-68
2021/03/05 08:39:30;;;;;;;10.87;3.20;;;3.10;85.40;;;;;;4314059;33;20197;-68
2021/03/05 08:42:29;;;;;;;6.63;1.90;;;3.20;85.20;;;;;;4315383;33;20193;-67
2021/03/05 08:45:13;;;;;;;7.73;2.10;;;3.30;85.30;;;;;;4314041;33;20294;-67
2021/03/05 08:47:45;;;;;;;8.90;1.90;;;3.40;82.90;;;;;;4313589;33;20252;-66
2021/03/05 08:50:13;;;;;;;13.80;2.03;;;3.40;79.30;;;;;;4314472;33;20259;-67
2021/03/05 08:52:42;;;;;;;5.13;1.93;;;3.50;80.20;;;;;;4312977;33;20196;-68
2021/03/05 08:55:09;;;;;;;10.57;2.00;;;3.50;81.10;;;;;;4314033;33;20226;-65
2021/03/05 08:57:42;;;;;;;4.97;1.73;;;3.60;79.30;;;;;;4313549;33;20314;-68
2021/03/05 09:00:14;;;;;;;6.23;2.00;;;3.70;77.60;;;;;;4314779;33;20237;-66
2021/03/05 09:02:41;;;;;;;4.53;1.67;;;3.60;75.50;;;;;;4312183;33;20248;-67
2021/03/05 09:05:08;;;;;;;3.63;1.47;;;3.80;76.10;;;;;;4311692;33;20225;-67
2021/03/05 09:07:50;;;;;;;5.23;1.53;;;3.80;77.00;;;;;;4312811;33;20645;-68
2021/03/05 09:10:22;;;;;;;4.77;1.70;;;3.90;76.30;;;;;;4310960;33;20192;-66
2021/03/05 09:13:00;;;;;;;5.70;1.30;;;4.00;72.00;;;;;;4312688;33;20174;-68
2021/03/05 09:15:28;;;;;;;2.63;1.30;;;4.00;72.20;;;;;;4313517;33;20290;-67
2021/03/05 09:17:58;;;;;;;6.37;1.20;;;4.00;72.10;;;;;;4310569;33;20245;-66
2021/03/05 09:20:35;;;;;;;4.77;1.13;;;4.10;70.80;;;;;;4312158;33;20626;-68
2021/03/05 09:23:18;;;;;;;5.03;1.00;;;4.20;65.90;;;;;;4313878;33;20713;-68
2021/03/05 09:25:52;;;;;;;4.63;0.80;;;4.20;65.10;;;;;;4313344;33;20166;-65
2021/03/05 09:28:24;;;;;;;3.27;0.80;;;4.20;66.00;;;;;;4311816;33;20237;-65
2021/03/05 09:30:51;;;;;;;4.50;0.73;;;4.30;64.40;;;;;;4316899;33;20510;-69
2021/03/05 09:33:25;;;;;;;1.70;0.80;;;4.40;62.50;;;;;;4314849;33;20259;-66
2021/03/05 09:35:59;;;;;;;6.17;0.97;;;4.40;61.20;;;;;;4321515;33;20196;-68
2021/03/05 09:38:26;;;;;;;3.67;0.90;;;4.40;58.00;;;;;;4324789;33;20172;-67
2021/03/05 09:40:52;;;;;;;4.17;0.90;;;4.40;59.00;;;;;;4324799;33;20848;-68
2021/03/05 09:43:19;;;;;;;2.97;0.53;;;4.50;57.90;;;;;;4325541;33;20188;-69
2021/03/05 09:45:49;;;;;;;1.57;0.60;;;4.60;57.30;;;;;;4324266;33;20805;-65
2021/03/05 09:48:30;;;;;;;3.83;0.90;;;4.60;56.80;;;;;;4330415;33;20265;-69
2021/03/05 09:50:58;;;;;;;1.27;0.80;;;4.70;55.40;;;;;;4326620;33;20308;-66
2021/03/05 09:53:28;;;;;;;2.37;0.70;;;4.70;55.80;;;;;;4327607;33;20185;-69
2021/03/05 09:55:57;;;;;;;1.20;0.53;;;4.80;54.90;;;;;;4326684;33;20236;-68
2021/03/05 09:58:24;;;;;;;5.47;0.90;;;4.90;53.80;;;;;;4325929;33;20208;-67
2021/03/05 10:00:53;;;;;;;3.93;0.50;;;4.90;53.80;;;;;;4326464;33;20204;-68
2021/03/05 10:03:19;;;;;;;2.97;1.10;;;4.90;53.70;;;;;;4326367;33;20756;-67
2021/03/05 10:05:46;;;;;;;2.53;0.77;;;5.00;53.80;;;;;;4325853;33;20185;-67
2021/03/05 10:08:15;;;;;;;2.70;0.93;;;5.00;53.60;;;;;;4323928;33;20150;-66
2021/03/05 10:11:03;;;;;;;2.77;0.80;;;5.10;53.30;;;;;;4324637;33;20179;-71
2021/03/05 10:13:50;;;;;;;2.43;0.60;;;5.10;53.40;;;;;;4325621;33;20190;-67
2021/03/05 10:16:19;;;;;;;4.57;0.63;;;5.20;54.10;;;;;;4327860;33;20290;-65
2021/03/05 10:18:47;;;;;;;1.27;0.60;;;5.20;51.00;;;;;;4325918;33;20171;-67
2021/03/05 10:21:16;;;;;;;3.27;0.40;;;5.20;52.80;;;;;;4324203;33;20589;-68
2021/03/05 10:23:44;;;;;;;3.40;0.60;;;5.20;50.50;;;;;;4328054;33;20165;-66
2021/03/05 10:26:26;;;;;;;1.53;0.50;;;5.20;50.50;;;;;;4324768;33;20181;-68
2021/03/05 10:28:57;;;;;;;1.83;0.50;;;5.40;51.20;;;;;;4326328;33;20669;-68
2021/03/05 10:31:46;;;;;;;0.50;0.40;;;5.40;50.20;;;;;;4327375;33;20189;-66
2021/03/05 10:34:24;;;;;;;5.87;1.07;;;5.40;48.40;;;;;;4326475;33;20339;-67
2021/03/05 10:36:51;;;;;;;4.20;0.50;;;5.50;47.80;;;;;;4326664;33;20204;-66
2021/03/05 10:39:18;;;;;;;1.20;0.60;;;5.50;50.30;;;;;;4325675;33;20574;-67
2021/03/05 10:41:52;;;;;;;2.40;0.60;;;5.40;49.80;;;;;;4325397;33;20173;-70
2021/03/05 10:44:18;;;;;;;4.00;0.53;;;5.50;50.80;;;;;;4325922;33;20288;-68
2021/03/05 10:46:48;;;;;;;2.57;0.70;;;5.50;50.50;;;;;;4327104;33;20184;-67
2021/03/05 10:49:14;;;;;;;3.53;0.60;;;5.60;49.90;;;;;;4327128;33;20173;-68
2021/03/05 10:51:42;;;;;;;0.90;0.43;;;5.60;50.70;;;;;;4327804;33;20267;-67
2021/03/05 10:54:09;;;;;;;2.87;0.63;;;5.60;51.10;;;;;;4328082;33;20235;-67
2021/03/05 10:56:36;;;;;;;2.27;0.87;;;5.60;51.50;;;;;;4327169;33;20589;-68
2021/03/05 10:59:06;;;;;;;1.50;0.70;;;5.70;52.40;;;;;;4327147;33;20604;-67
2021/03/05 11:01:32;;;;;;;1.97;0.63;;;5.70;51.80;;;;;;4326636;33;20545;-66
2021/03/05 11:03:58;;;;;;;2.30;0.60;;;5.90;52.60;;;;;;4326128;33;20224;-67
2021/03/05 11:06:25;;;;;;;4.30;0.83;;;5.80;51.20;;;;;;4327410;33;20662;-69
2021/03/05 11:08:55;;;;;;;3.23;0.60;;;5.80;51.10;;;;;;4326112;33;20157;-69
2021/03/05 11:11:22;;;;;;;2.27;0.60;;;5.70;50.70;;;;;;4327259;33;20636;-66
2021/03/05 11:13:48;;;;;;;6.70;0.60;;;5.70;52.50;;;;;;4327847;33;20192;-67
2021/03/05 11:16:16;;;;;;;1.23;0.60;;;5.70;51.60;;;;;;4330463;33;20256;-65
2021/03/05 11:18:42;;;;;;;1.27;0.67;;;5.70;50.60;;;;;;4325512;33;20590;-64
2021/03/05 11:21:11;;;;;;;3.97;0.73;;;5.80;52.70;;;;;;4327996;33;20636;-67
2021/03/05 11:23:37;;;;;;;1.57;0.60;;;5.80;52.30;;;;;;4328019;33;20505;-68
2021/03/05 11:26:04;;;;;;;2.17;0.70;;;6.00;51.70;;;;;;4370829;32;20778;-66
2021/03/05 11:28:30;;;;;;;2.93;0.70;;;6.00;49.90;;;;;;4386232;32;20183;-66
2021/03/05 11:30:57;;;;;;;2.03;0.70;;;6.10;50.20;;;;;;4382208;32;20289;-64
2021/03/05 11:33:24;;;;;;;1.00;0.60;;;6.00;51.20;;;;;;4387237;32;20229;-65
2021/03/05 11:35:51;;;;;;;2.40;0.90;;;6.00;50.70;;;;;;4383177;32;20257;-66
2021/03/05 11:38:17;;;;;;;5.10;0.90;;;6.10;51.00;;;;;;4380827;32;20574;-66
2021/03/05 11:40:44;;;;;;;3.57;0.90;;;6.00;51.40;;;;;;4379275;32;20312;-67
2021/03/05 11:43:16;;;;;;;2.67;1.00;;;6.00;52.10;;;;;;4381681;32;20215;-69
2021/03/05 11:45:42;;;;;;;2.37;0.83;;;6.00;52.10;;;;;;4379267;32;20168;-68
2021/03/05 11:48:11;;;;;;;3.47;0.80;;;6.10;51.00;;;;;;4385382;32;20186;-65
2021/03/05 11:50:42;;;;;;;2.87;0.70;;;6.00;51.80;;;;;;4382075;32;20604;-67
2021/03/05 11:53:11;;;;;;;3.17;0.73;;;6.10;53.20;;;;;;4391174;32;20172;-68
2021/03/05 11:55:38;;;;;;;2.40;1.20;;;6.00;52.80;;;;;;4412206;32;20305;-66
2021/03/05 11:58:04;;;;;;;4.03;1.17;;;6.10;53.40;;;;;;4412860;32;20302;-66
2021/03/05 12:00:31;;;;;;;1.80;0.80;;;6.00;52.80;;;;;;4411694;32;20223;-67
2021/03/05 12:02:58;;;;;;;3.63;0.90;;;6.20;52.70;;;;;;4411416;32;20198;-68
2021/03/05 12:05:26;;;;;;;1.93;0.70;;;6.30;50.60;;;;;;4406823;32;20630;-69
2021/03/05 12:07:54;;;;;;;5.10;1.37;;;6.10;52.00;;;;;;4409224;32;20213;-66
2021/03/05 12:10:24;;;;;;;4.17;1.10;;;6.10;52.20;;;;;;4412372;32;20182;-68
2021/03/05 12:12:50;;;;;;;2.33;0.97;;;6.10;53.20;;;;;;4408925;32;20168;-68
2021/03/05 12:15:18;;;;;;;2.27;0.90;;;6.30;53.90;;;;;;4410195;32;20221;-66
2021/03/05 12:17:45;;;;;;;3.33;0.83;;;6.30;53.50;;;;;;4412652;32;20181;-69
2021/03/05 12:20:13;;;;;;;3.33;0.90;;;6.40;54.20;;;;;;4408604;32;20222;-66
2021/03/05 12:22:39;;;;;;;7.53;1.20;;;6.50;55.10;;;;;;4408708;32;20152;-68
2021/03/05 12:25:08;;;;;;;5.37;0.73;;;6.60;56.40;;;;;;4413119;32;20175;-65
2021/03/05 12:27:34;;;;;;;4.97;1.53;;;6.90;56.10;;;;;;4411604;32;20281;-66
2021/03/05 12:30:01;;;;;;;4.73;1.20;;;7.00;53.90;;;;;;4406198;32;20531;-65
2021/03/05 12:32:27;;;;;;;3.27;0.90;;;6.90;54.00;;;;;;4412653;32;20194;-66
2021/03/05 12:34:54;;;;;;;4.57;0.90;;;6.80;54.10;;;;;;4408344;32;20238;-67
2021/03/05 12:37:20;;;;;;;6.53;1.23;;;6.80;53.70;;;;;;4410989;32;20205;-66
2021/03/05 12:39:46;;;;;;;4.30;0.90;;;6.90;53.20;;;;;;4411687;32;20211;-67
2021/03/05 12:42:17;;;;;;;4.20;1.47;;;6.80;53.90;;;;;;4409179;32;20163;-66
2021/03/05 12:44:43;;;;;;;4.57;1.40;;;6.80;53.30;;;;;;4411592;32;20729;-68
2021/03/05 12:47:09;;;;;;;3.47;0.80;;;6.80;53.10;;;;;;4411225;32;20160;-68
2021/03/05 12:49:36;;;;;;;2.40;1.37;;;6.80;53.90;;;;;;4413727;32;20163;-67
2021/03/05 12:52:02;;;;;;;1.63;1.00;;;6.80;53.90;;;;;;4412695;32;20152;-66
2021/03/05 12:54:29;;;;;;;3.07;1.63;;;6.70;53.10;;;;;;4408401;32;20542;-67
2021/03/05 12:56:55;;;;;;;2.60;1.00;;;6.70;53.40;;;;;;4405085;32;20283;-66
2021/03/05 12:59:27;;;;;;;4.33;1.30;;;6.70;52.60;;;;;;4410973;32;20179;-71
2021/03/05 13:01:55;;;;;;;3.73;1.20;;;6.80;53.90;;;;;;4409011;32;20163;-68
2021/03/05 13:04:21;;;;;;;4.70;1.83;;;6.90;53.90;;;;;;4410714;32;20251;-67
2021/03/05 13:06:48;;;;;;;5.67;1.70;;;6.90;54.70;;;;;;4408188;32;20249;-69
2021/03/05 13:09:14;;;;;;;1.80;0.90;;;6.90;53.40;;;;;;4406619;32;20179;-67
2021/03/05 13:11:41;;;;;;;5.60;1.40;;;6.70;53.10;;;;;;4411124;32;20178;-67
2021/03/05 13:14:07;;;;;;;3.20;1.30;;;6.80;54.00;;;;;;4409984;32;20233;-66
2021/03/05 13:16:34;;;;;;;6.67;1.63;;;6.80;53.10;;;;;;4409431;32;20182;-68
2021/03/05 13:19:01;;;;;;;4.53;1.20;;;6.90;53.20;;;;;;4406973;32;20282;-67
2021/03/05 13:21:27;;;;;;;3.20;1.10;;;7.00;52.70;;;;;;4408128;32;20199;-67
2021/03/05 13:23:54;;;;;;;5.30;1.10;;;7.10;52.70;;;;;;4407418;32;20222;-65
2021/03/05 13:26:21;;;;;;;2.23;1.20;;;7.20;52.10;;;;;;4409079;32;20707;-65
2021/03/05 13:28:48;;;;;;;3.63;1.10;;;7.00;52.10;;;;;;4410497;32;20194;-69
2021/03/05 13:31:15;;;;;;;3.57;1.37;;;6.80;51.10;;;;;;4409950;32;20576;-67
2021/03/05 13:33:42;;;;;;;5.67;1.33;;;6.70;52.70;;;;;;4412263;32;20230;-67
2021/03/05 13:36:09;;;;;;;4.97;1.43;;;6.70;54.20;;;;;;4407863;32;20174;-68
2021/03/05 13:38:35;;;;;;;2.80;1.20;;;6.70;53.80;;;;;;4410020;32;20237;-69
2021/03/05 13:41:04;;;;;;;5.23;1.47;;;6.60;52.30;;;;;;4409882;32;20984;-67
2021/03/05 13:43:31;;;;;;;9.13;1.73;;;6.70;53.00;;;;;;4410643;32;20246;-66
2021/03/05 13:45:57;;;;;;;4.13;1.27;;;6.70;52.50;;;;;;4408690;32;20206;-66
2021/03/05 13:48:24;;;;;;;3.97;1.60;;;6.80;53.50;;;;;;4405662;32;20453;-66
2021/03/05 13:50:51;;;;;;;6.57;1.60;;;6.80;52.80;;;;;;4409317;32;20179;-67
2021/03/05 13:53:18;;;;;;;4.33;1.37;;;6.90;53.60;;;;;;4405563;32;20229;-66
2021/03/05 13:55:44;;;;;;;6.20;1.67;;;7.00;55.50;;;;;;4413454;32;20159;-67
2021/03/05 13:58:11;;;;;;;7.07;2.43;;;6.90;55.80;;;;;;4409554;32;20148;-67
2021/03/05 14:00:38;;;;;;;7.93;2.00;;;6.90;55.10;;;;;;4409185;32;20709;-66
2021/03/05 14:03:08;;;;;;;7.07;1.50;;;6.70;55.30;;;;;;4409161;32;20272;-67
2021/03/05 14:05:34;;;;;;;6.23;2.00;;;6.50;56.30;;;;;;4405418;32;20218;-68
2021/03/05 14:08:01;;;;;;;5.17;2.00;;;6.40;56.10;;;;;;4409653;32;20541;-68
2021/03/05 14:10:28;;;;;;;6.40;1.87;;;6.40;54.80;;;;;;4406936;32;20217;-68
2021/03/05 14:12:54;;;;;;;4.23;1.97;;;6.40;53.80;;;;;;4404213;32;20249;-65
2021/03/05 14:15:21;;;;;;;8.93;2.20;;;6.40;54.50;;;;;;4410247;32;20183;-66
2021/03/05 14:17:47;;;;;;;7.10;2.37;;;6.40;55.50;;;;;;4406275;32;20308;-68
2021/03/05 14:20:14;;;;;;;5.17;1.87;;;6.40;55.30;;;;;;4409496;32;20199;-67
2021/03/05 14:22:40;;;;;;;6.33;1.77;;;6.60;55.70;;;;;;4405921;32;20258;-67
2021/03/05 14:25:09;;;;;;;5.73;1.60;;;6.80;57.40;;;;;;4412059;32;20198;-68
2021/03/05 14:27:36;;;;;;;7.33;2.00;;;6.90;57.30;;;;;;4405475;32;20655;-65
2021/03/05 14:30:04;;;;;;;8.07;2.30;;;6.80;57.30;;;;;;4410518;32;20484;-66
2021/03/05 14:32:31;;;;;;;5.03;1.70;;;6.70;55.80;;;;;;4407648;32;20179;-65
2021/03/05 14:34:57;;;;;;;5.87;1.93;;;6.50;56.80;;;;;;4410407;32;20675;-66
2021/03/05 14:37:24;;;;;;;6.47;2.20;;;6.40;56.70;;;;;;4408089;32;20164;-67
2021/03/05 14:39:53;;;;;;;4.30;2.40;;;6.30;56.50;;;;;;4410197;32;20211;-66
2021/03/05 14:42:20;;;;;;;5.50;1.77;;;6.10;56.90;;;;;;4408767;32;20602;-65
2021/03/05 14:44:47;;;;;;;7.53;2.17;;;6.00;57.90;;;;;;4409506;32;20210;-66
2021/03/05 14:47:13;;;;;;;4.97;1.40;;;6.00;58.30;;;;;;4414271;32;20181;-65
2021/03/05 14:49:40;;;;;;;6.50;1.33;;;6.10;58.70;;;;;;4413166;32;20171;-67
2021/03/05 14:52:07;;;;;;;3.43;1.20;;;6.20;59.00;;;;;;4412601;32;20234;-67
2021/03/05 14:54:34;;;;;;;4.47;1.83;;;6.30;58.60;;;;;;4410940;32;20227;-66
2021/03/05 14:57:00;;;;;;;5.53;1.90;;;6.40;58.70;;;;;;4413190;32;20182;-65
2021/03/05 14:59:28;;;;;;;4.57;1.37;;;6.80;58.30;;;;;;4414432;32;20175;-67
2021/03/05 15:01:54;;;;;;;6.07;2.00;;;6.80;56.20;;;;;;4409827;32;20159;-67
2021/03/05 15:04:20;;;;;;;4.23;1.90;;;6.70;56.00;;;;;;4411072;32;20215;-67
2021/03/05 15:06:47;;;;;;;5.83;1.50;;;6.60;55.80;;;;;;4411629;32;20182;-66
2021/03/05 15:09:13;;;;;;;9.30;1.57;;;6.50;56.90;;;;;;4407773;32;20164;-67
2021/03/05 15:11:42;;;;;;;5.27;1.20;;;6.50;57.70;;;;;;4412044;32;20206;-67
2021/03/05 15:14:09;;;;;;;7.60;1.70;;;6.40;58.70;;;;;;4415098;32;20193;-67
2021/03/05 15:16:39;;;;;;;5.80;1.60;;;6.40;58.60;;;;;;4405147;32;20206;-67
2021/03/05 15:19:05;;;;;;;5.80;1.70;;;6.50;58.20;;;;;;4412018;32;20160;-67
2021/03/05 15:21:32;;;;;;;4.13;1.07;;;6.50;58.10;;;;;;4408398;32;20168;-67
2021/03/05 15:23:58;;;;;;;5.93;1.00;;;6.50;57.50;;;;;;4407555;32;20210;-67
2021/03/05 15:26:25;;;;;;;5.10;1.20;;;6.40;57.30;;;;;;4411531;32;20169;-66
2021/03/05 15:28:51;;;;;;;4.40;1.20;;;6.30;57.30;;;;;;4411310;32;20186;-67
2021/03/05 15:31:17;;;;;;;4.93;1.23;;;6.20;56.80;;;;;;4412507;32;20174;-67
2021/03/05 15:33:45;;;;;;;7.83;1.00;;;6.10;56.70;;;;;;4409119;32;20506;-66
2021/03/05 15:36:11;;;;;;;1.97;0.90;;;6.10;56.20;;;;;;4407978;32;20194;-68
2021/03/05 15:38:38;;;;;;;2.27;0.93;;;6.10;56.80;;;;;;4405856;32;20569;-69
2021/03/05 15:41:04;;;;;;;3.43;1.00;;;6.00;57.10;;;;;;4411617;32;20560;-67
2021/03/05 15:43:31;;;;;;;3.63;1.20;;;6.00;57.60;;;;;;4415297;32;20583;-67
2021/03/05 15:45:58;;;;;;;6.03;1.37;;;6.00;57.80;;;;;;4414344;32;20175;-69
2021/03/05 15:48:24;;;;;;;3.57;1.10;;;6.00;58.10;;;;;;4412174;32;20588;-66
2021/03/05 15:50:53;;;;;;;7.77;1.40;;;6.00;59.00;;;;;;4410210;32;20152;-66
2021/03/05 15:53:19;;;;;;;6.30;1.00;;;5.90;59.10;;;;;;4410573;32;20204;-67
2021/03/05 15:55:49;;;;;;;6.33;1.40;;;5.90;59.30;;;;;;4411021;32;20219;-68
2021/03/05 15:58:15;;;;;;;3.70;1.00;;;5.90;59.50;;;;;;4408872;32;20242;-66
2021/03/05 16:00:42;;;;;;;2.40;1.00;;;5.90;59.70;;;;;;4410097;32;20184;-67
2021/03/05 16:03:10;;;;;;;3.60;0.93;;;5.80;59.40;;;;;;4409793;32;20164;-65
2021/03/05 16:05:37;;;;;;;7.07;1.33;;;5.80;60.20;;;;;;4410542;32;20177;-64
2021/03/05 16:08:05;;;;;;;5.73;1.23;;;5.90;60.20;;;;;;4408409;32;20203;-65
2021/03/05 16:10:31;;;;;;;4.23;1.20;;;5.80;59.50;;;;;;4411623;32;20209;-65
2021/03/05 16:12:59;;;;;;;5.50;1.20;;;5.70;59.80;;;;;;4411005;32;20218;-66
2021/03/05 16:15:25;;;;;;;3.00;1.13;;;5.70;59.10;;;;;;4412028;32;20242;-66
2021/03/05 16:17:51;;;;;;;4.47;1.00;;;5.80;59.30;;;;;;4412410;32;20194;-68
2021/03/05 16:20:18;;;;;;;7.10;1.33;;;5.70;59.70;;;;;;4412330;32;20226;-69
2021/03/05 16:22:44;;;;;;;7.63;1.80;;;5.70;60.70;;;;;;4410597;32;20229;-66
2021/03/05 16:25:14;;;;;;;5.07;1.10;;;5.70;60.40;;;;;;4411975;32;20219;-68
2021/03/05 16:27:41;;;;;;;5.23;1.50;;;5.60;61.40;;;;;;4412825;32;20209;-66
2021/03/05 16:30:07;;;;;;;6.03;1.60;;;5.60;61.00;;;;;;4411449;32;20220;-66
2021/03/05 16:32:34;;;;;;;7.20;1.33;;;5.60;62.40;;;;;;4409485;32;20190;-65
2021/03/05 16:35:00;;;;;;;2.83;1.10;;;5.60;62.80;;;;;;4413258;32;20233;-67
2021/03/05 16:37:26;;;;;;;3.43;1.43;;;5.60;62.60;;;;;;4410465;32;20156;-66
2021/03/05 16:39:53;;;;;;;5.53;1.43;;;5.60;62.60;;;;;;4410587;32;20198;-66
2021/03/05 16:42:20;;;;;;;5.53;1.57;;;5.60;63.20;;;;;;4414155;32;20206;-66
2021/03/05 16:44:47;;;;;;;6.30;1.47;;;5.50;63.90;;;;;;4416997;32;20164;-67
2021/03/05 16:47:13;;;;;;;4.37;1.47;;;5.50;64.20;;;;;;4411394;32;20178;-69
2021/03/05 16:49:39;;;;;;;2.87;1.53;;;5.50;64.60;;;;;;4413107;32;20508;-65
2021/03/05 16:52:07;;;;;;;8.57;2.60;;;5.50;64.10;;;;;;4413216;32;20253;-68
2021/03/05 16:54:33;;;;;;;7.53;1.50;;;5.40;64.00;;;;;;4413085;32;20172;-65
2021/03/05 16:56:59;;;;;;;8.53;1.77;;;5.40;64.50;;;;;;4415488;32;20214;-66
2021/03/05 16:59:27;;;;;;;4.47;1.30;;;5.30;64.50;;;;;;4411862;32;20588;-67